sensor_id;sensor_type;location;lat;lon;timestamp;pressure;altitude;pressure_sealevel;temperature;humidity
48790;BME280;41718;51.980;5.734;2024-02-04T00:00:56;102210.78;;;9.42;100.00
48790;BME280;41718;51.980;5.734;2024-02-04T00:12:36;102215.13;;;9.43;100.00
48790;BME280;41718;51.980;5.734;2024-02-04T00:17:55;102218.69;;;9.42;100.00
48790;BME280;41718;51.980;5.734;2024-02-04T00:23:03;102222.34;;;9.40;100.00
48790;BME280;41718;51.980;5.734;2024-02-04T00:28:18;102210.88;;;9.41;100.00
48790;BME280;41718;51.980;5.734;2024-02-04T00:33:44;102225.00;;;9.40;100.00
48790;BME280;41718;51.980;5.734;2024-02-04T00:38:51;102223.34;;;9.37;100.00
48790;BME280;41718;51.980;5.734;2024-02-04T00:44:03;102221.31;;;9.42;100.00
48790;BME280;41718;51.980;5.734;2024-02-04T00:49:11;102225.50;;;9.46;100.00
48790;BME280;41718;51.980;5.734;2024-02-04T00:54:20;102215.91;;;9.45;100.00
48790;BME280;41718;51.980;5.734;2024-02-04T00:59:27;102215.06;;;9.45;100.00
48790;BME280;41718;51.980;5.734;2024-02-04T01:04:37;102210.66;;;9.45;100.00
48790;BME280;41718;51.980;5.734;2024-02-04T01:09:53;102225.59;;;9.45;100.00
48790;BME280;41718;51.980;5.734;2024-02-04T01:14:58;102211.81;;;9.40;100.00
48790;BME280;41718;51.980;5.734;2024-02-04T01:20:27;102220.31;;;9.45;100.00
48790;BME280;41718;51.980;5.734;2024-02-04T01:25:36;102208.94;;;9.44;100.00
48790;BME280;41718;51.980;5.734;2024-02-04T01:30:48;102197.72;;;9.41;100.00
48790;BME280;41718;51.980;5.734;2024-02-04T01:36:01;102203.75;;;9.43;100.00
48790;BME280;41718;51.980;5.734;2024-02-04T01:41:10;102218.78;;;9.41;100.00
48790;BME280;41718;51.980;5.734;2024-02-04T01:46:47;102212.34;;;9.46;100.00
48790;BME280;41718;51.980;5.734;2024-02-04T01:52:05;102214.38;;;9.41;100.00
48790;BME280;41718;51.980;5.734;2024-02-04T01:57:17;102208.25;;;9.41;100.00
48790;BME280;41718;51.980;5.734;2024-02-04T02:02:36;102198.72;;;9.38;100.00
48790;BME280;41718;51.980;5.734;2024-02-04T02:07:53;102205.78;;;9.38;100.00
48790;BME280;41718;51.980;5.734;2024-02-04T02:13:14;102213.81;;;9.35;100.00
48790;BME280;41718;51.980;5.734;2024-02-04T02:18:59;102212.38;;;9.29;100.00
48790;BME280;41718;51.980;5.734;2024-02-04T02:24:27;102231.47;;;9.33;100.00
48790;BME280;41718;51.980;5.734;2024-02-04T02:29:35;102216.69;;;9.30;100.00
48790;BME280;41718;51.980;5.734;2024-02-04T02:34:43;102209.72;;;9.29;100.00
48790;BME280;41718;51.980;5.734;2024-02-04T02:45:26;102206.31;;;9.27;100.00
48790;BME280;41718;51.980;5.734;2024-02-04T02:50:30;102200.50;;;9.21;100.00
48790;BME280;41718;51.980;5.734;2024-02-04T02:55:35;102192.69;;;9.19;100.00
48790;BME280;41718;51.980;5.734;2024-02-04T03:00:37;102191.16;;;9.15;100.00
48790;BME280;41718;51.980;5.734;2024-02-04T03:05:40;102199.97;;;9.14;100.00
48790;BME280;41718;51.980;5.734;2024-02-04T03:10:42;102193.84;;;9.14;100.00
48790;BME280;41718;51.980;5.734;2024-02-04T03:15:46;102186.56;;;9.19;100.00
48790;BME280;41718;51.980;5.734;2024-02-04T03:20:48;102186.66;;;9.17;100.00
48790;BME280;41718;51.980;5.734;2024-02-04T03:25:50;102196.16;;;9.20;100.00
48790;BME280;41718;51.980;5.734;2024-02-04T03:30:53;102189.44;;;9.14;100.00
48790;BME280;41718;51.980;5.734;2024-02-04T03:35:55;102210.50;;;9.14;100.00
48790;BME280;41718;51.980;5.734;2024-02-04T03:40:57;102209.94;;;9.07;100.00
48790;BME280;41718;51.980;5.734;2024-02-04T03:45:59;102206.63;;;9.04;100.00
48790;BME280;41718;51.980;5.734;2024-02-04T03:51:01;102200.03;;;8.95;100.00
48790;BME280;41718;51.980;5.734;2024-02-04T03:56:03;102208.63;;;8.82;100.00
48790;BME280;41718;51.980;5.734;2024-02-04T04:01:09;102206.75;;;8.84;100.00
48790;BME280;41718;51.980;5.734;2024-02-04T04:06:12;102220.78;;;8.84;100.00
48790;BME280;41718;51.980;5.734;2024-02-04T04:11:14;102219.22;;;8.80;100.00
48790;BME280;41718;51.980;5.734;2024-02-04T04:16:21;102214.66;;;8.84;100.00
48790;BME280;41718;51.980;5.734;2024-02-04T04:21:24;102194.50;;;8.83;100.00
48790;BME280;41718;51.980;5.734;2024-02-04T04:26:26;102187.66;;;8.80;100.00
48790;BME280;41718;51.980;5.734;2024-02-04T04:31:28;102175.63;;;8.75;100.00
48790;BME280;41718;51.980;5.734;2024-02-04T04:36:34;102166.81;;;8.76;100.00
48790;BME280;41718;51.980;5.734;2024-02-04T04:41:36;102179.34;;;8.71;100.00
48790;BME280;41718;51.980;5.734;2024-02-04T04:46:39;102167.97;;;8.70;100.00
48790;BME280;41718;51.980;5.734;2024-02-04T04:51:45;102176.00;;;8.67;100.00
48790;BME280;41718;51.980;5.734;2024-02-04T04:56:50;102164.84;;;8.62;100.00
48790;BME280;41718;51.980;5.734;2024-02-04T05:01:52;102156.13;;;8.62;100.00
48790;BME280;41718;51.980;5.734;2024-02-04T05:06:54;102158.19;;;8.55;100.00
48790;BME280;41718;51.980;5.734;2024-02-04T05:11:57;102154.94;;;8.50;100.00
48790;BME280;41718;51.980;5.734;2024-02-04T05:17:00;102149.84;;;8.47;100.00
48790;BME280;41718;51.980;5.734;2024-02-04T05:22:02;102159.56;;;8.45;100.00
48790;BME280;41718;51.980;5.734;2024-02-04T05:27:05;102140.31;;;8.45;100.00
48790;BME280;41718;51.980;5.734;2024-02-04T05:32:07;102155.31;;;8.43;100.00
48790;BME280;41718;51.980;5.734;2024-02-04T05:37:09;102162.34;;;8.42;100.00
48790;BME280;41718;51.980;5.734;2024-02-04T05:42:11;102176.34;;;8.43;100.00
48790;BME280;41718;51.980;5.734;2024-02-04T05:47:13;102152.69;;;8.43;100.00
48790;BME280;41718;51.980;5.734;2024-02-04T05:52:16;102144.78;;;8.43;100.00
48790;BME280;41718;51.980;5.734;2024-02-04T05:57:18;102129.09;;;8.41;100.00
48790;BME280;41718;51.980;5.734;2024-02-04T06:02:22;102106.34;;;8.40;100.00
48790;BME280;41718;51.980;5.734;2024-02-04T06:07:25;102133.41;;;8.42;100.00
48790;BME280;41718;51.980;5.734;2024-02-04T06:12:27;102127.25;;;8.43;100.00
48790;BME280;41718;51.980;5.734;2024-02-04T06:17:31;102115.97;;;8.41;100.00
48790;BME280;41718;51.980;5.734;2024-02-04T06:22:37;102113.47;;;8.38;100.00
48790;BME280;41718;51.980;5.734;2024-02-04T06:27:39;102106.34;;;8.40;100.00
48790;BME280;41718;51.980;5.734;2024-02-04T06:32:42;102095.53;;;8.46;100.00
48790;BME280;41718;51.980;5.734;2024-02-04T06:37:44;102096.63;;;8.59;100.00
48790;BME280;41718;51.980;5.734;2024-02-04T06:42:46;102093.69;;;8.65;100.00
48790;BME280;41718;51.980;5.734;2024-02-04T06:47:48;102081.16;;;8.70;100.00
48790;BME280;41718;51.980;5.734;2024-02-04T06:52:50;102082.88;;;8.71;100.00
48790;BME280;41718;51.980;5.734;2024-02-04T06:57:52;102113.66;;;8.69;100.00
48790;BME280;41718;51.980;5.734;2024-02-04T07:02:54;102088.13;;;8.71;100.00
48790;BME280;41718;51.980;5.734;2024-02-04T07:07:56;102093.84;;;8.79;100.00
48790;BME280;41718;51.980;5.734;2024-02-04T07:12:58;102097.34;;;8.80;100.00
48790;BME280;41718;51.980;5.734;2024-02-04T07:18:01;102091.91;;;8.83;100.00
48790;BME280;41718;51.980;5.734;2024-02-04T07:23:04;102088.97;;;8.89;100.00
48790;BME280;41718;51.980;5.734;2024-02-04T07:28:06;102079.66;;;8.99;100.00
48790;BME280;41718;51.980;5.734;2024-02-04T07:33:11;102092.81;;;8.99;100.00
48790;BME280;41718;51.980;5.734;2024-02-04T07:38:13;102077.75;;;9.02;100.00
48790;BME280;41718;51.980;5.734;2024-02-04T07:43:15;102086.50;;;9.03;100.00
48790;BME280;41718;51.980;5.734;2024-02-04T07:48:21;102087.28;;;9.05;100.00
48790;BME280;41718;51.980;5.734;2024-02-04T07:53:25;102090.69;;;9.07;100.00
48790;BME280;41718;51.980;5.734;2024-02-04T07:58:30;102101.13;;;9.08;100.00
48790;BME280;41718;51.980;5.734;2024-02-04T08:03:32;102105.38;;;9.11;100.00
48790;BME280;41718;51.980;5.734;2024-02-04T08:08:34;102097.72;;;9.06;100.00
48790;BME280;41718;51.980;5.734;2024-02-04T08:13:38;102090.69;;;9.07;100.00
48790;BME280;41718;51.980;5.734;2024-02-04T08:18:42;102088.88;;;9.07;100.00
48790;BME280;41718;51.980;5.734;2024-02-04T08:23:44;102083.00;;;9.02;100.00
48790;BME280;41718;51.980;5.734;2024-02-04T08:28:50;102091.06;;;8.99;100.00
48790;BME280;41718;51.980;5.734;2024-02-04T08:33:53;102098.94;;;8.99;100.00
48790;BME280;41718;51.980;5.734;2024-02-04T08:38:56;102085.97;;;8.96;100.00
48790;BME280;41718;51.980;5.734;2024-02-04T08:43:58;102074.66;;;8.94;100.00
48790;BME280;41718;51.980;5.734;2024-02-04T08:49:04;102075.66;;;8.92;100.00
48790;BME280;41718;51.980;5.734;2024-02-04T08:54:07;102077.63;;;8.88;100.00
48790;BME280;41718;51.980;5.734;2024-02-04T08:59:11;102067.22;;;8.85;100.00
48790;BME280;41718;51.980;5.734;2024-02-04T09:04:14;102069.00;;;8.85;100.00
48790;BME280;41718;51.980;5.734;2024-02-04T09:09:16;102067.16;;;8.87;100.00
48790;BME280;41718;51.980;5.734;2024-02-04T09:14:18;102062.44;;;8.93;100.00
48790;BME280;41718;51.980;5.734;2024-02-04T09:19:20;102058.31;;;9.05;100.00
48790;BME280;41718;51.980;5.734;2024-02-04T09:24:24;102059.25;;;9.04;100.00
48790;BME280;41718;51.980;5.734;2024-02-04T10:30:38;102072.06;;;9.91;100.00
48790;BME280;41718;51.980;5.734;2024-02-04T10:35:43;102068.22;;;9.97;100.00
48790;BME280;41718;51.980;5.734;2024-02-04T10:40:45;102079.94;;;10.07;100.00
48790;BME280;41718;51.980;5.734;2024-02-04T10:45:48;102082.47;;;10.08;100.00
48790;BME280;41718;51.980;5.734;2024-02-04T10:50:54;102055.19;;;10.09;100.00
48790;BME280;41718;51.980;5.734;2024-02-04T10:56:00;102072.31;;;10.18;100.00
48790;BME280;41718;51.980;5.734;2024-02-04T11:01:05;102073.16;;;10.18;100.00
48790;BME280;41718;51.980;5.734;2024-02-04T11:06:10;102080.88;;;10.06;100.00
48790;BME280;41718;51.980;5.734;2024-02-04T11:11:13;102069.91;;;9.82;100.00
48790;BME280;41718;51.980;5.734;2024-02-04T11:27:31;102070.81;;;9.50;100.00
48790;BME280;41718;51.980;5.734;2024-02-04T11:32:42;102056.72;;;9.51;100.00
48790;BME280;41718;51.980;5.734;2024-02-04T11:37:46;102053.41;;;9.47;100.00
48790;BME280;41718;51.980;5.734;2024-02-04T11:42:48;102052.53;;;9.47;100.00
48790;BME280;41718;51.980;5.734;2024-02-04T11:48:01;102031.22;;;9.51;100.00
48790;BME280;41718;51.980;5.734;2024-02-04T11:53:10;102015.19;;;9.56;100.00
48790;BME280;41718;51.980;5.734;2024-02-04T11:59:04;102014.16;;;9.58;100.00
48790;BME280;41718;51.980;5.734;2024-02-04T12:04:15;102018.66;;;9.56;100.00
48790;BME280;41718;51.980;5.734;2024-02-04T12:09:18;102012.38;;;9.59;100.00
48790;BME280;41718;51.980;5.734;2024-02-04T12:14:21;102006.16;;;9.60;100.00
48790;BME280;41718;51.980;5.734;2024-02-04T12:19:24;101997.25;;;9.62;100.00
48790;BME280;41718;51.980;5.734;2024-02-04T12:24:26;101992.00;;;9.62;100.00
48790;BME280;41718;51.980;5.734;2024-02-04T12:29:28;101996.97;;;9.67;100.00
48790;BME280;41718;51.980;5.734;2024-02-04T12:34:30;101984.84;;;9.64;100.00
48790;BME280;41718;51.980;5.734;2024-02-04T12:39:36;101989.94;;;9.67;100.00
48790;BME280;41718;51.980;5.734;2024-02-04T12:44:38;101986.94;;;9.73;100.00
48790;BME280;41718;51.980;5.734;2024-02-04T12:49:42;101987.72;;;9.75;100.00
48790;BME280;41718;51.980;5.734;2024-02-04T12:54:44;101995.72;;;9.74;100.00
48790;BME280;41718;51.980;5.734;2024-02-04T12:59:47;101994.09;;;9.71;100.00
48790;BME280;41718;51.980;5.734;2024-02-04T13:04:49;101996.56;;;9.74;100.00
48790;BME280;41718;51.980;5.734;2024-02-04T13:10:00;101984.97;;;9.77;100.00
48790;BME280;41718;51.980;5.734;2024-02-04T13:15:03;101974.44;;;9.77;100.00
48790;BME280;41718;51.980;5.734;2024-02-04T13:20:09;101967.66;;;9.73;100.00
48790;BME280;41718;51.980;5.734;2024-02-04T13:30:34;101982.56;;;9.58;100.00
48790;BME280;41718;51.980;5.734;2024-02-04T13:35:54;101981.59;;;9.59;100.00
48790;BME280;41718;51.980;5.734;2024-02-04T13:41:16;101958.66;;;9.61;100.00
48790;BME280;41718;51.980;5.734;2024-02-04T13:47:14;101961.03;;;9.66;100.00
48790;BME280;41718;51.980;5.734;2024-02-04T14:03:52;101949.31;;;9.71;100.00
48790;BME280;41718;51.980;5.734;2024-02-04T14:08:55;101932.72;;;9.69;100.00
48790;BME280;41718;51.980;5.734;2024-02-04T14:14:01;101935.97;;;9.74;100.00
48790;BME280;41718;51.980;5.734;2024-02-04T14:19:09;101957.88;;;9.75;100.00
48790;BME280;41718;51.980;5.734;2024-02-04T14:24:22;101955.09;;;9.78;100.00
48790;BME280;41718;51.980;5.734;2024-02-04T14:30:03;101941.00;;;9.79;100.00
48790;BME280;41718;51.980;5.734;2024-02-04T14:35:12;101939.38;;;9.76;100.00
48790;BME280;41718;51.980;5.734;2024-02-04T14:40:17;101929.41;;;9.81;100.00
48790;BME280;41718;51.980;5.734;2024-02-04T14:45:19;101917.75;;;9.85;100.00
48790;BME280;41718;51.980;5.734;2024-02-04T14:50:27;101935.94;;;9.90;100.00
48790;BME280;41718;51.980;5.734;2024-02-04T14:55:33;101935.66;;;9.95;100.00
48790;BME280;41718;51.980;5.734;2024-02-04T15:00:53;101929.44;;;9.96;100.00
48790;BME280;41718;51.980;5.734;2024-02-04T15:06:01;101908.84;;;10.02;100.00
48790;BME280;41718;51.980;5.734;2024-02-04T15:11:09;101903.69;;;10.01;100.00
48790;BME280;41718;51.980;5.734;2024-02-04T15:16:20;101895.94;;;10.13;100.00
48790;BME280;41718;51.980;5.734;2024-02-04T15:21:23;101916.41;;;10.08;100.00
48790;BME280;41718;51.980;5.734;2024-02-04T15:26:34;101919.66;;;10.13;100.00
48790;BME280;41718;51.980;5.734;2024-02-04T15:31:39;101901.13;;;10.15;100.00
48790;BME280;41718;51.980;5.734;2024-02-04T15:37:02;101897.81;;;10.11;100.00
48790;BME280;41718;51.980;5.734;2024-02-04T15:42:37;101899.06;;;10.20;100.00
48790;BME280;41718;51.980;5.734;2024-02-04T15:48:08;101892.94;;;10.19;100.00
48790;BME280;41718;51.980;5.734;2024-02-04T15:53:12;101880.25;;;10.26;100.00
48790;BME280;41718;51.980;5.734;2024-02-04T15:58:27;101870.63;;;10.25;100.00
48790;BME280;41718;51.980;5.734;2024-02-04T16:03:36;101851.31;;;10.24;100.00
48790;BME280;41718;51.980;5.734;2024-02-04T16:08:44;101865.44;;;10.23;100.00
48790;BME280;41718;51.980;5.734;2024-02-04T16:13:51;101864.03;;;10.18;100.00
48790;BME280;41718;51.980;5.734;2024-02-04T16:18:54;101860.72;;;10.28;100.00
48790;BME280;41718;51.980;5.734;2024-02-04T16:23:56;101877.78;;;10.23;100.00
48790;BME280;41718;51.980;5.734;2024-02-04T16:28:59;101858.00;;;10.30;100.00
48790;BME280;41718;51.980;5.734;2024-02-04T16:34:01;101853.50;;;10.32;100.00
48790;BME280;41718;51.980;5.734;2024-02-04T16:39:03;101843.22;;;10.27;100.00
48790;BME280;41718;51.980;5.734;2024-02-04T16:44:09;101850.09;;;10.30;100.00
48790;BME280;41718;51.980;5.734;2024-02-04T16:49:11;101852.16;;;10.39;100.00
48790;BME280;41718;51.980;5.734;2024-02-04T16:54:21;101851.78;;;10.45;100.00
48790;BME280;41718;51.980;5.734;2024-02-04T16:59:29;101848.41;;;10.43;100.00
48790;BME280;41718;51.980;5.734;2024-02-04T17:04:31;101837.41;;;10.36;100.00
48790;BME280;41718;51.980;5.734;2024-02-04T17:09:34;101843.22;;;10.41;100.00
48790;BME280;41718;51.980;5.734;2024-02-04T17:14:37;101857.81;;;10.47;100.00
48790;BME280;41718;51.980;5.734;2024-02-04T17:25:14;101856.78;;;10.49;100.00
48790;BME280;41718;51.980;5.734;2024-02-04T17:30:20;101837.66;;;10.46;100.00
48790;BME280;41718;51.980;5.734;2024-02-04T17:35:23;101841.06;;;10.48;100.00
48790;BME280;41718;51.980;5.734;2024-02-04T17:40:27;101861.31;;;10.47;100.00
48790;BME280;41718;51.980;5.734;2024-02-04T17:45:42;101855.66;;;10.53;100.00
48790;BME280;41718;51.980;5.734;2024-02-04T17:50:50;101844.34;;;10.51;100.00
48790;BME280;41718;51.980;5.734;2024-02-04T17:56:04;101850.22;;;10.42;100.00
48790;BME280;41718;51.980;5.734;2024-02-04T18:01:06;101858.56;;;10.35;100.00
48790;BME280;41718;51.980;5.734;2024-02-04T18:06:08;101835.91;;;10.32;100.00
48790;BME280;41718;51.980;5.734;2024-02-04T18:11:20;101824.28;;;10.21;100.00
48790;BME280;41718;51.980;5.734;2024-02-04T18:16:24;101817.13;;;10.23;100.00
48790;BME280;41718;51.980;5.734;2024-02-04T18:21:27;101796.31;;;10.18;100.00
48790;BME280;41718;51.980;5.734;2024-02-04T18:26:44;101797.16;;;10.19;100.00
48790;BME280;41718;51.980;5.734;2024-02-04T18:31:46;101805.34;;;10.14;100.00
48790;BME280;41718;51.980;5.734;2024-02-04T18:36:49;101798.41;;;10.13;100.00
48790;BME280;41718;51.980;5.734;2024-02-04T18:41:51;101811.38;;;10.16;100.00
48790;BME280;41718;51.980;5.734;2024-02-04T18:46:54;101814.50;;;10.23;100.00
48790;BME280;41718;51.980;5.734;2024-02-04T18:51:56;101804.41;;;10.29;100.00
48790;BME280;41718;51.980;5.734;2024-02-04T18:56:59;101797.16;;;10.33;100.00
48790;BME280;41718;51.980;5.734;2024-02-04T19:02:04;101812.72;;;10.37;100.00
48790;BME280;41718;51.980;5.734;2024-02-04T19:07:08;101805.28;;;10.44;100.00
48790;BME280;41718;51.980;5.734;2024-02-04T19:12:10;101799.88;;;10.45;100.00
48790;BME280;41718;51.980;5.734;2024-02-04T19:17:15;101787.19;;;10.38;100.00
48790;BME280;41718;51.980;5.734;2024-02-04T19:22:19;101792.06;;;10.58;100.00
48790;BME280;41718;51.980;5.734;2024-02-04T19:27:26;101779.91;;;10.55;100.00
48790;BME280;41718;51.980;5.734;2024-02-04T19:32:29;101786.50;;;10.62;100.00
48790;BME280;41718;51.980;5.734;2024-02-04T19:37:32;101791.13;;;10.59;100.00
48790;BME280;41718;51.980;5.734;2024-02-04T19:42:47;101800.72;;;10.60;100.00
48790;BME280;41718;51.980;5.734;2024-02-04T19:47:57;101800.63;;;10.61;100.00
48790;BME280;41718;51.980;5.734;2024-02-04T19:53:16;101805.34;;;10.56;100.00
48790;BME280;41718;51.980;5.734;2024-02-04T19:59:24;101801.75;;;10.57;100.00
48790;BME280;41718;51.980;5.734;2024-02-04T20:05:02;101794.97;;;10.53;100.00
48790;BME280;41718;51.980;5.734;2024-02-04T20:10:53;101801.59;;;10.60;100.00
48790;BME280;41718;51.980;5.734;2024-02-04T20:16:26;101794.53;;;10.61;100.00
48790;BME280;41718;51.980;5.734;2024-02-04T20:22:06;101780.38;;;10.62;100.00
48790;BME280;41718;51.980;5.734;2024-02-04T20:27:14;101790.16;;;10.60;100.00
48790;BME280;41718;51.980;5.734;2024-02-04T20:32:31;101786.28;;;10.65;100.00
48790;BME280;41718;51.980;5.734;2024-02-04T20:37:48;101791.13;;;10.59;100.00
48790;BME280;41718;51.980;5.734;2024-02-04T20:43:04;101786.50;;;10.62;100.00
48790;BME280;41718;51.980;5.734;2024-02-04T20:48:19;101792.25;;;10.69;100.00
48790;BME280;41718;51.980;5.734;2024-02-04T20:53:25;101764.16;;;10.68;100.00
48790;BME280;41718;51.980;5.734;2024-02-04T20:58:51;101785.53;;;10.63;100.00
48790;BME280;41718;51.980;5.734;2024-02-04T21:03:58;101800.34;;;10.66;100.00
48790;BME280;41718;51.980;5.734;2024-02-04T21:09:03;101798.94;;;10.60;100.00
48790;BME280;41718;51.980;5.734;2024-02-04T21:14:08;101793.47;;;10.63;100.00
48790;BME280;41718;51.980;5.734;2024-02-04T21:19:14;101796.19;;;10.62;100.00
48790;BME280;41718;51.980;5.734;2024-02-04T21:24:24;101804.50;;;10.56;100.00
48790;BME280;41718;51.980;5.734;2024-02-04T21:29:30;101799.81;;;10.61;100.00
48790;BME280;41718;51.980;5.734;2024-02-04T21:34:49;101814.00;;;10.73;100.00
48790;BME280;41718;51.980;5.734;2024-02-04T21:39:54;101799.81;;;10.61;100.00
48790;BME280;41718;51.980;5.734;2024-02-04T21:45:06;101791.78;;;10.62;100.00
48790;BME280;41718;51.980;5.734;2024-02-04T21:50:12;101802.06;;;10.67;100.00
48790;BME280;41718;51.980;5.734;2024-02-04T21:55:29;101794.06;;;10.54;100.00
48790;BME280;41718;51.980;5.734;2024-02-04T22:00:39;101812.31;;;10.57;100.00
48790;BME280;41718;51.980;5.734;2024-02-04T22:05:50;101816.44;;;10.61;100.00
48790;BME280;41718;51.980;5.734;2024-02-04T22:10:56;101816.66;;;10.58;100.00
48790;BME280;41718;51.980;5.734;2024-02-04T22:16:04;101798.56;;;10.66;99.82
48790;BME280;41718;51.980;5.734;2024-02-04T22:21:39;101803.38;;;10.60;99.97
48790;BME280;41718;51.980;5.734;2024-02-04T22:27:09;101805.63;;;10.52;100.00
48790;BME280;41718;51.980;5.734;2024-02-04T22:32:40;101806.88;;;10.46;100.00
48790;BME280;41718;51.980;5.734;2024-02-04T22:37:47;101815.53;;;10.48;100.00
48790;BME280;41718;51.980;5.734;2024-02-04T22:43:11;101806.19;;;10.43;100.00
48790;BME280;41718;51.980;5.734;2024-02-04T22:48:23;101815.91;;;10.42;100.00
48790;BME280;41718;51.980;5.734;2024-02-04T22:53:32;101809.69;;;10.43;100.00
48790;BME280;41718;51.980;5.734;2024-02-04T22:58:46;101807.16;;;10.42;100.00
48790;BME280;41718;51.980;5.734;2024-02-04T23:03:50;101818.72;;;10.39;100.00
48790;BME280;41718;51.980;5.734;2024-02-04T23:08:52;101816.00;;;10.41;100.00
48790;BME280;41718;51.980;5.734;2024-02-04T23:13:57;101809.91;;;10.40;99.72
48790;BME280;41718;51.980;5.734;2024-02-04T23:19:03;101824.22;;;10.36;100.00
48790;BME280;41718;51.980;5.734;2024-02-04T23:24:12;101831.44;;;10.33;100.00
48790;BME280;41718;51.980;5.734;2024-02-04T23:29:19;101823.25;;;10.37;99.23
48790;BME280;41718;51.980;5.734;2024-02-04T23:34:28;101827.88;;;10.34;99.46
48790;BME280;41718;51.980;5.734;2024-02-04T23:39:48;101822.59;;;10.34;98.69
48790;BME280;41718;51.980;5.734;2024-02-04T23:44:50;101853.78;;;10.27;99.64
48790;BME280;41718;51.980;5.734;2024-02-04T23:50:02;101853.13;;;10.24;99.70
48790;BME280;41718;51.980;5.734;2024-02-04T23:55:10;101864.41;;;10.26;99.00
